Latest Coastal Weather Observations for Devonport Airport

IDT60701

Issued at 7:52 am EDT Sunday 1 March 2015 (issued every 10 minutes, with the page automatically refreshed every 10 minutes)

About coastal observations | Map of coastal stations | Coastal observations for TAS | Marine services | Other Formats
Station Details ID: 091126 Name: DEVONPORT AIRPORT Lat: -41.17 Lon: 146.43 Height: 8.0 m
Data from the previous 72 hours. | See also: Recent months at Devonport Airport
Date/Time
EDT
Temp

°C
Wind Pressure Rain
since 9am
mm
Weather Cloud Vis
km
Sea
Height
m
Swell
Dir
 
Speed
knots
Gust
knots
hPa Trend Height
m
Period
s
Dir
01/07:30am 11.7 WSW 7 8 1005.4 - - - - 10 - - - -
01/07:00am 11.9 SW 6 8 1004.8 - - - - 10 - - - -
01/06:30am 12.1 WSW 7 9 1004.1 - - - - 10 - - - -
01/06:00am 11.4 W 7 8 1003.5 - - - - 10 - - - -
01/05:30am 11.6 W 9 11 1002.9 - - - - 10 - - - -
01/05:00am 11.7 WSW 7 8 1002.8 - - - - 10 - - - -
01/04:30am 12.2 W 7 11 1002.7 - - - - 10 - - - -
01/04:00am 11.6 W 9 11 1002.5 - - - - 10 - - - -
01/03:30am 11.5 W 5 7 1002.5 - - - - 10 - - - -
01/03:00am 12.3 SW 4 5 1002.4 - - - - 10 - - - -
01/02:30am 13.3 SW 4 5 1002.3 - - - - 10 - - - -
01/02:00am 13.4 WSW 6 7 1002.4 - - - - 10 - - - -
01/01:30am 14.5 W 11 12 1002.5 - - - - 10 - - - -
01/01:00am 15.1 W 10 13 1002.2 - - - - 10 - - - -
01/12:30am 16.3 W 11 18 1002.0 - - - - 10 - - - -
 
Date/Time
EDT
Temp

°C
Wind Pressure Rain
since 9am
mm
Weather Cloud Vis
km
Sea
Height
m
Swell
Dir
 
Speed
knots
Gust
knots
hPa Trend Height
m
Period
s
Dir
28/11:43pm 18.3 WNW 13 17 1002.0 - - - Partly cloudy 10 - - - -
28/11:30pm 18.5 WNW 16 19 1002.1 - - - Partly cloudy 10 - - - -
28/11:00pm 18.5 NW 18 23 1002.1 - - - Partly cloudy 10 - - - -
28/10:42pm 18.6 NW 17 23 1002.0 - - - Partly cloudy 10 - - - -
28/10:30pm 18.6 NW 17 22 1002.1 - - - Partly cloudy 5 - - - -
28/10:27pm 18.7 NW 18 24 1002.1 - - - Partly cloudy 6 - - - -
28/10:00pm 18.8 NW 13 17 1001.5 - - - Partly cloudy 10 - - - -
28/09:52pm 18.9 WNW 13 16 1002.0 - - - Partly cloudy 10 - - - -
28/09:51pm 18.9 WNW 13 16 1002.0 - - - Partly cloudy 10 - - - -
28/09:30pm 18.9 NW 13 16 1002.0 - - - Partly cloudy 10 - - - -
28/09:02pm 18.8 NW 14 18 1001.5 - - - Partly cloudy 10 - - - -
28/09:00pm 18.8 NW 13 17 1001.4 - - Showers Cloudy 10 - - - -
28/08:45pm 18.7 NW 12 15 1000.7 - - - Partly cloudy 10 - - - -
28/08:30pm 18.7 NNW 11 16 1000.7 - - - Partly cloudy 10 - - - -
28/08:03pm 18.9 NNW 10 13 1001.0 - - - Partly cloudy 10 - - - -
28/08:02pm 18.9 NNW 9 12 1001.0 - - - Partly cloudy 10 - - - -
28/08:00pm 18.9 NNW 9 12 1001.0 - - - Partly cloudy 10 - - - -
28/07:41pm 19.1 NW 10 14 1001.1 - - - Partly cloudy 6 - - - -
28/07:30pm 19.3 NNW 7 11 1001.0 - - - Partly cloudy 10 - - - -
28/07:00pm 19.2 N 6 7 1000.8 - - - Partly cloudy 10 - - - -
28/06:30pm 19.1 N 5 6 1001.0 - - - Partly cloudy 10 - - - -
28/06:00pm 18.7 NW 5 6 1001.3 - - - Cloudy 10 - - - -
28/05:30pm 19.0 WNW 6 7 1001.5 - - - Partly cloudy 10 - - - -
28/05:23pm 19.0 WNW 5 7 1001.6 - - - Partly cloudy 10 - - - -
28/05:00pm 18.5 WNW 7 8 1001.9 - - - Partly cloudy 10 - - - -
28/04:30pm 18.7 NW 11 14 1002.1 - - - Cloudy 10 - - - -
28/04:00pm 18.6 NNW 14 18 1002.3 - - - Partly cloudy 10 - - - -
28/03:30pm 18.2 N 14 19 1002.4 - - - Partly cloudy 10 - - - -
28/03:26pm 18.3 N 14 19 1002.5 - - - Partly cloudy 10 - - - -
28/03:00pm 17.8 NNE 9 12 1003.0 - - Showers Cloudy 5 - - - -
28/02:42pm 17.7 NNE 10 12 1003.4 - - - Partly cloudy 6 - - - -
28/02:30pm 17.7 NNE 10 13 1003.6 - - - Partly cloudy 9 - - - -
28/02:00pm 17.7 NE 6 7 1004.2 - - - Partly cloudy 10 - - - -
28/01:32pm 17.4 NNE 6 7 1004.6 - - - Cloudy 10 - - - -
28/01:30pm 17.4 NNE 6 7 1004.7 - - - Cloudy 10 - - - -
28/01:00pm 17.6 NNE 5 7 1005.3 - - - Cloudy 10 - - - -
28/12:30pm 17.7 NNE 5 7 1005.5 - - - Cloudy 10 - - - -
28/12:00pm 17.5 N 6 7 1005.9 - - - Cloudy 10 - - - -
28/11:30am 17.5 N 7 9 1006.2 - - - Cloudy 10 - - - -
28/11:00am 17.2 NNE 6 9 1006.5 - - - Partly cloudy 10 - - - -
28/10:30am 17.7 NNE 7 9 1006.6 - - - Partly cloudy 10 - - - -
28/10:00am 17.9 NNE 8 11 1007.0 - - - Partly cloudy 10 - - - -
28/09:30am 16.8 NNE 4 7 1007.1 - - - Partly cloudy 10 - - - -
28/09:00am 15.8 SE 6 8 1007.0 - - - Cloudy 10 - - - -
28/08:30am 14.9 S 7 8 1007.2 - - - Partly cloudy 10 - - - -
28/08:00am 14.1 SSE 7 9 1007.2 - - - Partly cloudy 10 - - - -
28/07:30am 13.3 S 7 9 1007.1 - - - Partly cloudy 10 - - - -
28/07:00am 12.9 SSE 8 10 1007.1 - - - Partly cloudy 10 - - - -
28/06:30am 12.9 SSE 8 9 1007.2 - - - Cloudy 10 - - - -
28/06:00am 12.8 S 9 11 1007.5 - - - Cloudy 10 - - - -
28/05:30am 12.6 SSE 9 11 1007.4 - - - Partly cloudy 10 - - - -
28/05:00am 13.0 SSE 8 9 1007.5 - - - Cloudy 10 - - - -
28/04:30am 12.5 SSE 9 10 1007.9 - - - Partly cloudy 10 - - - -
28/04:00am 12.1 S 3 8 1008.0 - - - - 10 - - - -
28/03:30am 12.5 S 7 9 1008.4 - - - - 10 - - - -
28/03:00am 12.2 S 8 10 1008.4 - - - Cloudy 10 - - - -
28/02:30am 12.8 S 8 10 1008.8 - - - - 10 - - - -
28/02:00am 13.2 SSE 9 11 1008.8 - - - - 10 - - - -
28/01:30am 13.9 SSE 9 11 1009.0 - - - - 10 - - - -
28/01:00am 13.5 SSE 9 10 1008.9 - - - - 10 - - - -
28/12:30am 13.0 S 8 10 1009.2 - - - - 10 - - - -
28/12:00am 13.2 S 7 8 1009.2 - - - Mostly cloudy 10 - - - -
 
Date/Time
EDT
Temp

°C
Wind Pressure Rain
since 9am
mm
Weather Cloud Vis
km
Sea
Height
m
Swell
Dir
 
Speed
knots
Gust
knots
hPa Trend Height
m
Period
s
Dir
27/11:30pm 13.7 S 7 8 1009.5 - - - - 10 - - - -
27/11:00pm 12.9 SSE 7 8 1009.2 - - - - 10 - - - -
27/10:30pm 13.2 SSE 6 8 1009.5 - - - - 10 - - - -
27/10:00pm 13.4 SSE 5 7 1009.5 - - - - 10 - - - -
27/09:30pm 14.1 SSE 6 7 1009.0 - - - - 10 - - - -
27/09:00pm 14.1 S 5 6 1008.9 - - - - 10 - - - -
27/08:30pm 16.1 E 5 6 1008.5 - - - - 10 - - - -
27/08:00pm 16.9 E 5 6 1008.1 - - - - 10 - - - -
27/07:30pm 19.4 ESE 3 4 1007.7 - - - - 10 - - - -
27/07:00pm 19.8 S 6 7 1007.8 - - - Partly cloudy 10 - - - -
27/06:30pm 19.7 S 3 4 1007.7 - - - - 10 - - - -
27/06:00pm 19.9 WNW 4 6 1007.8 - - - Partly cloudy 10 - - - -
27/05:30pm 19.7 SW 1 5 1007.7 - - - - 10 - - - -
27/05:00pm 18.1 N 1 4 1008.2 - - - - 10 - - - -
27/04:30pm 17.7 NNW 4 6 1008.2 - - - - 10 - - - -
27/04:00pm 17.8 NE 5 8 1008.1 - - - - 10 - - - -
27/03:30pm 17.5 NNE 5 7 1008.6 - - - - 10 - - - -
27/03:00pm 16.7 NE 5 8 1008.9 - - - Cloudy 10 - - - -
27/02:30pm 16.9 NE 7 10 1009.2 - - - - 10 - - - -
27/02:00pm 17.3 N 8 10 1009.3 - - - Partly cloudy 10 - - - -
27/01:30pm 17.5 NNW 8 11 1009.2 - - - Partly cloudy 10 - - - -
27/01:00pm 17.9 NNW 9 13 1009.5 - - - Partly cloudy 10 - - - -
27/12:30pm 17.0 NNW 9 13 1009.9 - - - Partly cloudy 10 - - - -
27/12:00pm 17.5 N 12 15 1009.8 - - - - 10 - - - -
27/11:30am 17.9 N 12 15 1009.9 - - - - 10 - - - -
27/11:00am 17.9 N 11 14 1010.1 - - - - 10 - - - -
27/10:30am 18.0 NE 13 16 1010.1 - - - Partly cloudy 10 - - - -
27/10:24am 18.2 NE 14 18 1010.1 - - - Partly cloudy 10 - - - -
27/10:00am 18.1 NE 11 15 1010.3 - - - Cloudy 10 - - - -
27/09:41am 17.7 ENE 7 11 1010.2 - - - Cloudy 10 - - - -
27/09:30am 17.1 E 6 8 1010.2 - - - Partly cloudy 10 - - - -
27/09:00am 15.8 SE 7 10 1010.1 - - - Partly cloudy 10 - - - -
27/08:30am 15.7 SSE 8 12 1009.9 - - - Partly cloudy 10 - - - -
27/08:11am 15.3 SSE 8 10 1010.0 - - - Partly cloudy 10 - - - -
27/08:00am 15.0 SSE 9 13 1009.8 - - - Partly cloudy 10 - - - -
27/07:49am 14.8 SSE 8 11 1010.1 - - - Partly cloudy 10 - - - -
27/07:48am 14.7 SSE 8 11 1010.1 - - - Partly cloudy 10 - - - -
27/07:30am 13.9 SSE 8 10 1009.9 - - - Partly cloudy 10 - - - -
27/07:25am 13.7 SSE 8 10 1009.8 - - - Partly cloudy 10 - - - -
27/07:00am 13.9 SSE 8 11 1009.6 - - - Partly cloudy 10 - - - -
27/06:30am 13.6 SSE 9 11 1009.7 - - - Partly cloudy 10 - - - -
27/06:00am 13.5 SSE 9 11 1009.4 - - - Cloudy 10 - - - -
27/05:30am 13.4 SSE 8 10 1009.6 - - - Partly cloudy 10 - - - -
27/05:14am 13.1 SSE 9 11 1009.6 - - - Partly cloudy 10 - - - -
27/05:00am 12.8 SE 7 8 1009.6 - - - Partly cloudy 10 - - - -
27/04:30am 13.1 SSE 9 12 1009.5 - - - Cloudy 10 - - - -
27/04:00am 12.5 SSE 10 12 1009.7 - - - Partly cloudy 10 - - - -
27/03:45am 12.2 SSE 10 13 1009.5 - - - Partly cloudy 10 - - - -
27/03:30am 12.2 SSE 10 13 1009.7 - - - Partly cloudy 10 - - - -
27/03:00am 12.1 S 9 11 1009.8 - - - Mostly clear 10 - - - -
27/02:30am 12.5 S 10 13 1009.7 - - - Partly cloudy 10 - - - -
27/02:00am 12.6 S 11 15 1009.9 - - - - 10 - - - -
27/01:30am 13.0 SSE 10 12 1010.2 - - - - 10 - - - -
27/01:00am 13.3 S 9 11 1010.2 - - - - 10 - - - -
27/12:30am 13.6 SSW 5 7 1010.0 - - - - 10 - - - -
27/12:00am 14.2 SSW 5 7 1009.8 - - - - 10 - - - -
 
Date/Time
EDT
Temp

°C
Wind Pressure Rain
since 9am
mm
Weather Cloud Vis
km
Sea
Height
m
Swell
Dir
 
Speed
knots
Gust
knots
hPa Trend Height
m
Period
s
Dir
26/11:30pm 14.5 S 7 8 1009.9 - - - - 10 - - - -
26/11:00pm 15.6 S 9 12 1009.6 - - - - 10 - - - -
26/10:30pm 16.4 SW 7 8 1009.3 - - - - 10 - - - -
26/10:00pm 15.7 W 10 10 1009.2 - - - - 10 - - - -
26/09:30pm 16.0 W 10 11 1009.1 - - - - 10 - - - -
26/09:00pm 16.6 W 9 9 1008.9 - - - - 10 - - - -
26/08:30pm 17.9 W 8 9 1008.3 - - - - 10 - - - -
26/08:00pm 20.0 WSW 6 7 1007.8 - - - Partly cloudy 10 - - - -
26/07:30pm 21.7 WSW 9 11 1007.5 - - - Partly cloudy 10 - - - -
26/07:00pm 22.2 SW 9 12 1007.2 - - - Cloudy 10 - - - -
26/06:30pm 22.9 WNW 8 12 1006.9 - - - Partly cloudy 10 - - - -
26/06:00pm 20.8 NW 9 12 1006.8 - - - Cloudy 10 - - - -
26/05:30pm 20.8 NW 12 14 1006.7 - - - Partly cloudy 10 - - - -
26/05:00pm 20.6 NNE 7 11 1006.8 - - - - 10 - - - -
26/04:30pm 21.9 N 10 13 1006.9 - - - Partly cloudy 10 - - - -
26/04:00pm 20.6 N 9 11 1007.2 - - - Partly cloudy 10 - - - -
26/03:30pm 20.5 NNW 8 11 1007.5 - - - Partly cloudy 10 - - - -
26/03:00pm 20.7 N 10 13 1007.5 - - - Mostly clear 10 - - - -
26/02:30pm 19.9 N 9 12 1007.5 - - - - 10 - - - -
26/02:00pm 20.2 NNW 8 12 1007.8 - - - - 10 - - - -
26/01:30pm 19.3 N 6 8 1008.1 - - - Partly cloudy 10 - - - -
26/01:00pm 18.8 NNW 6 9 1008.3 - - - Partly cloudy 10 - - - -
26/12:30pm 18.2 N 6 8 1008.5 - - - Partly cloudy 10 - - - -
26/12:00pm 18.2 NNW 5 6 1008.9 - - - Mostly cloudy 10 - - - -
26/11:30am 18.2 WNW 4 6 1009.0 - - - Partly cloudy 10 - - - -
26/11:00am 18.2 WNW 2 4 1009.1 - - - Partly cloudy 10 - - - -
26/10:30am 17.7 SSW 3 4 1009.0 - - - Cloudy 10 - - - -
26/10:00am 16.9 S 3 4 1009.1 - - - Partly cloudy 10 - - - -
26/09:30am 15.9 SSE 6 7 1009.1 - - - Partly cloudy 10 - - - -
26/09:00am 15.5 SE 6 8 1009.0 - - - Cloudy 10 - - - -
26/08:30am 14.6 S 6 7 1009.2 - - - Partly cloudy 10 - - - -
26/08:00am 13.9 SSE 6 7 1009.2 - - - Partly cloudy 10 - - - -

Other Formats:

Comma delimited format used in spreadsheet applications
http://www.bom.gov.au/fwo/IDT60701/IDT60701.95960.axf

JavaScript Object Notation format (JSON) in row-major order
http://www.bom.gov.au/fwo/IDT60701/IDT60701.95960.json